createdAt,value
2018-03-22T00:01:10.909Z,97554.27
2018-03-22T00:03:36.963Z,97554.80
2018-03-22T00:06:02.991Z,97560.05
2018-03-22T00:08:29.013Z,97556.44
2018-03-22T00:10:55.052Z,97555.06
2018-03-22T00:13:21.046Z,97556.41
2018-03-22T00:15:47.083Z,97550.58
2018-03-22T00:18:13.109Z,97556.85
2018-03-22T00:20:39.158Z,97556.20
2018-03-22T00:23:05.275Z,97549.81
2018-03-22T00:25:31.277Z,97543.48
2018-03-22T00:27:57.854Z,97545.66
2018-03-22T00:30:23.885Z,97543.20
2018-03-22T00:32:49.918Z,97544.89
2018-03-22T00:35:15.973Z,97544.69
2018-03-22T00:37:42.025Z,97535.95
2018-03-22T00:40:08.041Z,97534.05
2018-03-22T00:42:34.157Z,97534.53
2018-03-22T00:45:00.202Z,97534.25
2018-03-22T00:47:26.202Z,97530.48
2018-03-22T00:49:52.214Z,97517.14
2018-03-22T00:52:18.273Z,97517.62
2018-03-22T00:54:44.302Z,97515.98
2018-03-22T00:57:10.305Z,97520.70
2018-03-22T00:59:36.336Z,97510.66
2018-03-22T01:02:02.330Z,97511.61
2018-03-22T01:04:28.350Z,97507.67
2018-03-22T01:06:54.300Z,97504.98
2018-03-22T01:09:20.351Z,97491.45
2018-03-22T01:11:46.308Z,97498.73
2018-03-22T01:14:12.311Z,97487.07
2018-03-22T01:16:38.331Z,97483.73
2018-03-22T01:19:04.309Z,97480.68
2018-03-22T01:21:30.321Z,97481.88
2018-03-22T01:23:56.320Z,97482.59
2018-03-22T01:26:22.433Z,97474.64
2018-03-22T01:28:48.448Z,97475.34
2018-03-22T01:31:14.471Z,97469.95
2018-03-22T01:33:40.479Z,97470.28
2018-03-22T01:36:06.526Z,97470.09
2018-03-22T01:38:32.562Z,97467.36
2018-03-22T01:40:58.526Z,97463.16
2018-03-22T01:43:24.590Z,97457.16
2018-03-22T01:45:50.587Z,97449.20
2018-03-22T01:48:16.677Z,97450.05
2018-03-22T01:50:42.685Z,97450.99
2018-03-22T01:53:12.741Z,97446.49
2018-03-22T01:55:38.735Z,97443.66
2018-03-22T01:58:04.794Z,97445.84
2018-03-22T02:00:30.797Z,97443.78
2018-03-22T02:02:56.810Z,97441.31
2018-03-22T02:05:22.836Z,97432.89
2018-03-22T02:07:48.862Z,97433.78
2018-03-22T02:10:14.870Z,97427.91
2018-03-22T02:12:40.886Z,97433.08
2018-03-22T02:15:06.955Z,97426.22
2018-03-22T02:17:32.981Z,97424.81
2018-03-22T02:19:59.034Z,97424.11
2018-03-22T02:22:25.082Z,97423.53
2018-03-22T02:24:51.094Z,97419.78
2018-03-22T02:27:17.149Z,97409.25
2018-03-22T02:29:43.107Z,97412.33
2018-03-22T02:32:09.116Z,97413.62
2018-03-22T02:34:35.118Z,97404.43
2018-03-22T02:37:01.181Z,97402.55
2018-03-22T02:39:27.158Z,97405.68
2018-03-22T02:41:53.247Z,97398.67
2018-03-22T02:44:19.314Z,97404.42
2018-03-22T02:46:45.354Z,97394.83
2018-03-22T02:49:11.362Z,97392.28
2018-03-22T02:51:37.413Z,97384.05
2018-03-22T02:54:03.378Z,97368.75
2018-03-22T02:56:29.348Z,97376.97
2018-03-22T02:58:55.362Z,97376.27
2018-03-22T03:01:21.486Z,97367.99
2018-03-22T03:03:47.713Z,97361.16
2018-03-22T03:06:13.779Z,97354.07
2018-03-22T03:08:39.786Z,97346.97
2018-03-22T03:11:05.803Z,97345.27
2018-03-22T03:13:31.790Z,97344.11
2018-03-22T03:15:57.808Z,97340.49
2018-03-22T03:18:23.802Z,97337.64
2018-03-22T03:20:49.839Z,97338.12
2018-03-22T03:23:15.844Z,97333.73
2018-03-22T03:25:42.226Z,97335.48
2018-03-22T03:28:08.242Z,97337.84
2018-03-22T03:30:34.272Z,97328.97
2018-03-22T03:33:00.298Z,97326.64
2018-03-22T03:35:26.261Z,97330.28
2018-03-22T03:37:52.315Z,97324.42
2018-03-22T03:40:18.279Z,97319.41
2018-03-22T03:42:44.336Z,97313.13
2018-03-22T03:45:10.349Z,97310.72
2018-03-22T03:47:36.353Z,97307.24
2018-03-22T03:50:02.672Z,97301.79
2018-03-22T03:52:28.677Z,97299.17
2018-03-22T03:54:54.816Z,97304.83
2018-03-22T03:57:20.834Z,97304.32
2018-03-22T03:59:47.408Z,97305.53
2018-03-22T04:02:13.502Z,97300.53
2018-03-22T04:04:39.910Z,97300.61
2018-03-22T04:07:05.977Z,97291.08
2018-03-22T04:09:32.026Z,97291.41
2018-03-22T04:11:58.093Z,97279.99
2018-03-22T04:14:24.141Z,97273.89
2018-03-22T04:16:50.149Z,97273.11
2018-03-22T04:19:16.153Z,97263.98
2018-03-22T04:21:42.169Z,97263.97
2018-03-22T04:24:08.147Z,97256.13
2018-03-22T04:26:34.189Z,97252.20
2018-03-22T04:29:00.195Z,97242.41
2018-03-22T04:31:26.204Z,97249.88
2018-03-22T04:33:52.208Z,97253.83
2018-03-22T04:36:18.210Z,97244.70
2018-03-22T04:38:44.244Z,97249.02
2018-03-22T04:41:10.333Z,97250.53
2018-03-22T04:43:36.352Z,97240.15
2018-03-22T04:46:02.454Z,97240.78
2018-03-22T04:48:28.507Z,97241.98
2018-03-22T04:50:54.530Z,97236.88
2018-03-22T04:53:20.544Z,97235.59
2018-03-22T04:55:46.617Z,97234.98
2018-03-22T04:58:12.677Z,97168.83
2018-03-22T05:00:38.855Z,97228.64
2018-03-22T05:03:04.873Z,97223.31
2018-03-22T05:05:30.928Z,97217.34
2018-03-22T05:07:56.929Z,97213.07
2018-03-22T05:10:22.937Z,97214.73
2018-03-22T05:12:48.941Z,97212.00
2018-03-22T05:15:15.065Z,97206.48
2018-03-22T05:17:41.085Z,97208.38
2018-03-22T05:20:07.077Z,97200.47
2018-03-22T05:22:33.090Z,97204.45
2018-03-22T05:24:59.118Z,97200.41
2018-03-22T05:27:25.157Z,97197.28
2018-03-22T05:29:51.226Z,97195.34
2018-03-22T05:32:17.334Z,97192.73
2018-03-22T05:34:43.364Z,97187.20
2018-03-22T05:37:09.485Z,97190.61
2018-03-22T05:39:35.519Z,97182.69
2018-03-22T05:42:01.522Z,97178.98
2018-03-22T05:44:27.597Z,97187.02
2018-03-22T05:46:53.595Z,97181.78
2018-03-22T05:49:19.616Z,97188.20
2018-03-22T05:51:45.658Z,97178.58
2018-03-22T05:54:12.559Z,97185.07
2018-03-22T05:56:38.566Z,97181.45
2018-03-22T05:59:04.590Z,97183.69
2018-03-22T06:01:30.682Z,97175.92
2018-03-22T06:03:56.836Z,97173.50
2018-03-22T06:06:22.790Z,97172.13
2018-03-22T06:08:48.867Z,97167.86
2018-03-22T06:11:14.929Z,97162.91
2018-03-22T06:13:40.889Z,97163.73
2018-03-22T06:16:07.084Z,97160.53
2018-03-22T06:18:33.074Z,97156.47
2018-03-22T06:20:59.107Z,97159.37
2018-03-22T06:23:25.185Z,97155.05
2018-03-22T06:25:51.191Z,97148.04
2018-03-22T06:28:17.200Z,97138.66
2018-03-22T06:30:43.325Z,97135.23
2018-03-22T06:33:09.354Z,97135.56
2018-03-22T06:35:35.397Z,97126.41
2018-03-22T06:38:01.449Z,97125.37
2018-03-22T06:40:27.469Z,97126.78
2018-03-22T06:42:53.552Z,97129.82
2018-03-22T06:45:19.560Z,97133.30
2018-03-22T06:47:45.607Z,97134.98
2018-03-22T06:50:11.651Z,97133.79
2018-03-22T06:52:37.670Z,97129.68
2018-03-22T06:55:04.030Z,97128.07
2018-03-22T06:57:30.025Z,97131.11
2018-03-22T06:59:56.034Z,97125.97
2018-03-22T07:02:22.039Z,97129.45
2018-03-22T07:04:48.175Z,97122.08
2018-03-22T07:07:14.143Z,97123.47
2018-03-22T07:09:40.142Z,97120.25
2018-03-22T07:12:06.193Z,97119.28
2018-03-22T07:14:32.205Z,97120.58
2018-03-22T07:16:58.234Z,97125.70
2018-03-22T07:19:24.332Z,97121.09
2018-03-22T07:21:50.366Z,97124.61
2018-03-22T07:24:16.394Z,97112.45
2018-03-22T07:26:42.392Z,97112.22
2018-03-22T07:29:08.479Z,97109.83
2018-03-22T07:31:34.543Z,97109.83
2018-03-22T07:34:00.690Z,97112.27
2018-03-22T07:36:26.697Z,97114.05
2018-03-22T07:38:52.659Z,97113.23
2018-03-22T07:41:18.729Z,97106.25
2018-03-22T07:43:44.773Z,97102.39
2018-03-22T07:46:10.797Z,97106.03
2018-03-22T07:48:36.773Z,97097.11
2018-03-22T07:51:02.842Z,97091.37
2018-03-22T07:53:28.902Z,97089.11
2018-03-22T07:55:55.050Z,97089.12
2018-03-22T07:58:21.249Z,97084.74
2018-03-22T08:00:47.253Z,97080.13
2018-03-22T08:03:15.129Z,97072.13
2018-03-22T08:05:41.137Z,97068.55
2018-03-22T08:08:07.192Z,97060.95
2018-03-22T08:10:33.225Z,97064.29
2018-03-22T08:12:59.289Z,97061.42
2018-03-22T08:15:25.601Z,97058.09
2018-03-22T08:17:51.633Z,97058.66
2018-03-22T08:20:17.649Z,97048.14
2018-03-22T08:22:43.642Z,97053.43
2018-03-22T08:25:09.692Z,97048.14
2018-03-22T08:27:35.699Z,97052.01
2018-03-22T08:30:01.772Z,97043.93
2018-03-22T08:32:27.817Z,97037.28
2018-03-22T08:34:53.853Z,97038.87
2018-03-22T08:37:19.826Z,97029.47
2018-03-22T08:39:45.841Z,97022.77
2018-03-22T08:42:11.886Z,97028.07
2018-03-22T08:44:37.894Z,97014.27
2018-03-22T08:47:03.958Z,97011.14
2018-03-22T08:49:29.965Z,97017.53
2018-03-22T08:51:56.024Z,97005.23
2018-03-22T08:54:22.025Z,97007.63
2018-03-22T08:56:48.073Z,97001.45
2018-03-22T08:59:14.057Z,96997.80
2018-03-22T09:01:40.074Z,97003.75
2018-03-22T09:04:06.167Z,96998.56
2018-03-22T09:06:32.210Z,96999.94
2018-03-22T09:08:58.253Z,96991.27
2018-03-22T09:11:24.326Z,96989.91
2018-03-22T09:13:50.389Z,96989.84
2018-03-22T09:16:16.369Z,96984.25
2018-03-22T09:18:42.446Z,96973.63
2018-03-22T09:21:08.476Z,96977.73
2018-03-22T09:23:34.485Z,96981.34
2018-03-22T09:26:00.468Z,96977.31
2018-03-22T09:28:26.497Z,96970.92
2018-03-22T09:30:52.525Z,96964.48
2018-03-22T09:33:18.533Z,96966.30
2018-03-22T09:35:44.541Z,96956.92
2018-03-22T09:38:10.567Z,96956.31
2018-03-22T09:40:36.553Z,96957.61
2018-03-22T09:43:02.595Z,96958.56
2018-03-22T09:45:28.633Z,96954.13
2018-03-22T09:47:54.697Z,96956.51
2018-03-22T09:50:20.710Z,96956.66
2018-03-22T09:52:46.713Z,96948.98
2018-03-22T09:55:12.766Z,96952.89
2018-03-22T09:57:38.814Z,96947.39
2018-03-22T10:00:04.869Z,96944.01
2018-03-22T10:02:30.914Z,96941.80
2018-03-22T10:04:56.938Z,96940.48
2018-03-22T10:07:22.934Z,96934.98
2018-03-22T10:09:48.948Z,96935.91
2018-03-22T10:12:14.968Z,96915.16
2018-03-22T10:14:40.981Z,96919.21
2018-03-22T10:17:06.952Z,96906.80
2018-03-22T10:19:32.953Z,96897.40
2018-03-22T10:21:59.075Z,96895.83
2018-03-22T10:24:25.108Z,96892.68
2018-03-22T10:26:51.091Z,96883.80
2018-03-22T10:29:17.443Z,96885.38
2018-03-22T10:31:43.451Z,96874.39
2018-03-22T10:34:09.530Z,96875.31
2018-03-22T10:36:35.561Z,96866.30
2018-03-22T10:39:01.615Z,96862.13
2018-03-22T10:41:27.617Z,96859.00
2018-03-22T10:43:53.705Z,96850.52
2018-03-22T10:46:19.709Z,96852.24
2018-03-22T10:48:45.690Z,96840.38
2018-03-22T10:51:11.709Z,96845.18
2018-03-22T10:53:37.749Z,96831.06
2018-03-22T10:56:03.784Z,96816.83
2018-03-22T10:58:30.180Z,96818.53
2018-03-22T11:01:02.282Z,96820.34
2018-03-22T11:03:28.482Z,96812.77
2018-03-22T11:05:54.505Z,96810.16
2018-03-22T11:08:20.545Z,96805.70
2018-03-22T11:10:46.630Z,96801.02
2018-03-22T11:13:12.674Z,96783.55
2018-03-22T11:15:38.618Z,96798.94
2018-03-22T11:18:04.642Z,96798.70
2018-03-22T11:20:30.640Z,96791.90
2018-03-22T11:22:56.651Z,96787.06
2018-03-22T11:25:22.652Z,96781.70
2018-03-22T11:27:48.691Z,96781.17
2018-03-22T11:30:14.736Z,96777.74
2018-03-22T11:32:40.702Z,96774.22
2018-03-22T11:35:06.722Z,96772.91
2018-03-22T11:37:32.817Z,96771.15
2018-03-22T11:39:58.853Z,96762.04
2018-03-22T11:42:24.833Z,96762.29
2018-03-22T11:44:50.916Z,96750.84
2018-03-22T11:47:16.970Z,96744.17
2018-03-22T11:49:42.997Z,96748.33
2018-03-22T11:52:09.020Z,96748.30
2018-03-22T11:54:35.028Z,96738.25
2018-03-22T11:57:01.060Z,96742.45
2018-03-22T11:59:27.086Z,96724.45
2018-03-22T12:01:53.203Z,96727.21
2018-03-22T12:04:19.218Z,96721.45
2018-03-22T12:06:45.208Z,96721.53
2018-03-22T12:09:11.330Z,96718.85
2018-03-22T12:11:37.334Z,96714.09
2018-03-22T12:14:03.340Z,96706.86
2018-03-22T12:16:29.362Z,96703.06
2018-03-22T12:18:55.365Z,96694.91
2018-03-22T12:21:21.413Z,96679.14
2018-03-22T12:23:47.417Z,96693.55
2018-03-22T12:26:13.441Z,96684.38
2018-03-22T12:28:39.464Z,96684.39
2018-03-22T12:31:05.530Z,96683.83
2018-03-22T12:33:31.509Z,96679.62
2018-03-22T12:35:57.539Z,96671.59
2018-03-22T12:38:23.603Z,96671.81
2018-03-22T12:40:49.614Z,96666.70
2018-03-22T12:43:15.642Z,96666.00
2018-03-22T12:45:41.676Z,96671.17
2018-03-22T12:48:07.699Z,96663.95
2018-03-22T12:50:33.725Z,96658.56
2018-03-22T12:52:59.827Z,96654.83
2018-03-22T12:55:26.279Z,96657.65
2018-03-22T12:57:52.285Z,96666.45
2018-03-22T13:00:18.314Z,96657.58
2018-03-22T13:02:44.387Z,96659.72
2018-03-22T13:05:10.401Z,96658.03
2018-03-22T13:07:36.406Z,96658.09
2018-03-22T13:10:02.414Z,96647.13
2018-03-22T13:12:28.470Z,96644.14
2018-03-22T13:14:54.499Z,96629.12
2018-03-22T13:17:20.536Z,96641.84
2018-03-22T13:19:46.553Z,96643.02
2018-03-22T13:22:12.572Z,96639.77
2018-03-22T13:24:38.578Z,96642.31
2018-03-22T13:27:04.572Z,96628.11
2018-03-22T13:29:30.598Z,96633.02
2018-03-22T13:31:56.619Z,96647.70
2018-03-22T13:34:22.690Z,96632.92
2018-03-22T13:36:48.746Z,96629.42
2018-03-22T13:39:14.785Z,96624.63
2018-03-22T13:41:40.770Z,96621.88
2018-03-22T13:44:06.804Z,96627.69
2018-03-22T13:46:32.841Z,96620.22
2018-03-22T13:48:58.853Z,96615.50
2018-03-22T13:51:24.862Z,96614.86
2018-03-22T13:53:50.945Z,96611.96
2018-03-22T13:56:17.011Z,96611.33
2018-03-22T13:58:43.026Z,96599.30
2018-03-22T14:01:09.055Z,96591.55
2018-03-22T14:03:35.061Z,96593.70
2018-03-22T14:06:01.106Z,96590.69
2018-03-22T14:08:27.590Z,96580.38
2018-03-22T14:10:53.661Z,96581.75
2018-03-22T14:13:19.681Z,96571.25
2018-03-22T14:15:45.655Z,96564.45
2018-03-22T14:18:11.662Z,96563.77
2018-03-22T14:20:37.737Z,96561.26
2018-03-22T14:23:03.783Z,96557.92
2018-03-22T14:25:30.422Z,96547.85
2018-03-22T14:27:56.450Z,96553.78
2018-03-22T14:30:22.510Z,96552.34
2018-03-22T14:32:48.516Z,96545.02
2018-03-22T14:35:14.459Z,96542.60
2018-03-22T14:37:40.514Z,96534.48
2018-03-22T14:40:06.548Z,96531.73
2018-03-22T14:42:32.553Z,96536.44
2018-03-22T14:44:58.652Z,96531.99
2018-03-22T14:47:24.634Z,96521.16
2018-03-22T14:49:50.670Z,96537.28
2018-03-22T14:52:16.760Z,96526.41
2018-03-22T14:54:42.794Z,96528.00
2018-03-22T14:57:08.822Z,96527.03
2018-03-22T14:59:34.877Z,96517.77
2018-03-22T15:02:00.896Z,96515.02
2018-03-22T15:04:26.918Z,96514.23
2018-03-22T15:06:52.990Z,96511.13
2018-03-22T15:09:19.017Z,96518.05
2018-03-22T15:11:45.048Z,96508.59
2018-03-22T15:14:11.095Z,96513.93
2018-03-22T15:16:37.133Z,96517.21
2018-03-22T15:19:03.183Z,96503.83
2018-03-22T15:21:29.184Z,96518.20
2018-03-22T15:23:55.290Z,96520.45
2018-03-22T15:26:21.319Z,96519.26
2018-03-22T15:28:47.373Z,96522.53
2018-03-22T15:31:13.459Z,96522.16
2018-03-22T15:33:39.518Z,96535.45
2018-03-22T15:36:05.538Z,96539.74
2018-03-22T15:38:31.628Z,96543.88
2018-03-22T15:40:57.707Z,96543.77
2018-03-22T15:43:23.806Z,96538.56
2018-03-22T15:45:49.911Z,96542.99
2018-03-22T15:48:15.925Z,96537.70
2018-03-22T15:50:42.048Z,96541.84
2018-03-22T15:53:08.124Z,96548.37
2018-03-22T15:55:34.218Z,96545.52
2018-03-22T15:58:00.247Z,96532.37
2018-03-22T16:00:26.717Z,96532.64
2018-03-22T16:02:52.771Z,96545.27
2018-03-22T16:05:18.814Z,96543.07
2018-03-22T16:07:44.825Z,96542.41
2018-03-22T16:10:10.929Z,96543.45
2018-03-22T16:12:37.039Z,96532.00
2018-03-22T16:15:03.349Z,96529.78
2018-03-22T16:17:29.462Z,96528.73
2018-03-22T16:19:55.561Z,96515.58
2018-03-22T16:22:21.634Z,96524.81
2018-03-22T16:24:47.670Z,96516.48
2018-03-22T16:27:13.697Z,96516.23
2018-03-22T16:29:39.801Z,96504.13
2018-03-22T16:32:05.867Z,96516.38
2018-03-22T16:34:31.906Z,96511.31
2018-03-22T16:36:57.905Z,96518.87
2018-03-22T16:39:23.961Z,96522.12
2018-03-22T16:41:49.969Z,96525.12
2018-03-22T16:44:15.993Z,96524.98
2018-03-22T16:46:41.975Z,96526.29
2018-03-22T16:49:08.103Z,96524.72
2018-03-22T16:51:34.136Z,96526.02
2018-03-22T16:54:00.151Z,96517.95
2018-03-22T16:56:26.154Z,96515.48
2018-03-22T16:58:52.112Z,96511.45
2018-03-22T17:01:18.127Z,96506.62
2018-03-22T17:03:44.187Z,96516.13
2018-03-22T17:06:10.254Z,96512.22
2018-03-22T17:08:36.292Z,96511.31
2018-03-22T17:11:02.329Z,96508.19
2018-03-22T17:13:28.310Z,96505.20
2018-03-22T17:15:54.364Z,96503.91
2018-03-22T17:18:20.453Z,96504.56
2018-03-22T17:20:46.529Z,96500.00
2018-03-22T17:23:12.549Z,96501.05
2018-03-22T17:25:38.622Z,96493.36
2018-03-22T17:28:04.726Z,96502.34
2018-03-22T17:30:30.806Z,96496.61
2018-03-22T17:32:56.758Z,96494.13
2018-03-22T17:35:22.873Z,96493.34
2018-03-22T17:37:48.890Z,96492.70
2018-03-22T17:40:14.912Z,96500.11
2018-03-22T17:42:40.982Z,96491.12
2018-03-22T17:45:07.037Z,96492.67
2018-03-22T17:47:33.042Z,96491.65
2018-03-22T17:49:59.131Z,96492.56
2018-03-22T17:52:25.201Z,96488.91
2018-03-22T17:54:51.244Z,96494.00
2018-03-22T17:57:17.294Z,96483.84
2018-03-22T17:59:43.344Z,96497.13
2018-03-22T18:02:09.405Z,96489.69
2018-03-22T18:04:35.386Z,96494.64
2018-03-22T18:07:01.422Z,96488.24
2018-03-22T18:09:27.849Z,96492.15
2018-03-22T18:11:53.910Z,96492.17
2018-03-22T18:14:19.934Z,96488.77
2018-03-22T18:16:45.934Z,96492.16
2018-03-22T18:19:12.004Z,96482.26
2018-03-22T18:21:38.075Z,96476.16
2018-03-22T18:24:04.092Z,96481.61
2018-03-22T18:26:30.101Z,96480.31
2018-03-22T18:28:56.101Z,96483.32
2018-03-22T18:31:22.073Z,96479.28
2018-03-22T18:33:48.070Z,96476.28
2018-03-22T18:36:14.152Z,96475.90
2018-03-22T18:38:40.141Z,96467.16
2018-03-22T18:41:06.181Z,96467.16
2018-03-22T18:43:32.208Z,96464.03
2018-03-22T18:45:58.290Z,96461.70
2018-03-22T18:48:24.358Z,96470.83
2018-03-22T18:50:50.338Z,96474.45
2018-03-22T18:53:16.419Z,96480.16
2018-03-22T18:55:42.466Z,96477.69
2018-03-22T18:58:08.489Z,96476.52
2018-03-22T19:00:34.541Z,96478.86
2018-03-22T19:03:00.566Z,96477.03
2018-03-22T19:05:26.666Z,96477.55
2018-03-22T19:07:52.694Z,96470.26
2018-03-22T19:10:18.766Z,96468.17
2018-03-22T19:12:45.206Z,96466.77
2018-03-22T19:15:11.167Z,96461.30
2018-03-22T19:17:37.188Z,96468.44
2018-03-22T19:20:03.326Z,96469.73
2018-03-22T19:22:29.374Z,96465.31
2018-03-22T19:24:55.425Z,96465.33
2018-03-22T19:27:21.477Z,96458.94
2018-03-22T19:29:47.485Z,96465.20
2018-03-22T19:32:13.497Z,96464.80
2018-03-22T19:34:39.677Z,96460.88
2018-03-22T19:37:05.721Z,96464.55
2018-03-22T19:39:31.898Z,96459.58
2018-03-22T19:41:57.995Z,96458.80
2018-03-22T19:44:24.125Z,96459.84
2018-03-22T19:46:50.124Z,96457.91
2018-03-22T19:49:16.094Z,96459.99
2018-03-22T19:51:42.106Z,96462.22
2018-03-22T19:54:08.191Z,96466.38
2018-03-22T19:56:34.193Z,96465.86
2018-03-22T19:59:00.356Z,96462.33
2018-03-22T20:01:26.446Z,96465.47
2018-03-22T20:03:52.474Z,96467.16
2018-03-22T20:06:18.500Z,96465.08
2018-03-22T20:08:44.533Z,96467.03
2018-03-22T20:11:10.635Z,96465.48
2018-03-22T20:13:36.622Z,96465.20
2018-03-22T20:16:02.723Z,96465.07
2018-03-22T20:18:28.745Z,96464.69
2018-03-22T20:20:54.813Z,96458.81
2018-03-22T20:23:20.921Z,96450.50
2018-03-22T20:25:47.030Z,96452.44
2018-03-22T20:28:13.044Z,96457.65
2018-03-22T20:30:39.079Z,96453.89
2018-03-22T20:33:05.158Z,96455.82
2018-03-22T20:35:31.255Z,96450.61
2018-03-22T20:37:57.432Z,96453.62
2018-03-22T20:40:23.441Z,96447.24
2018-03-22T20:42:49.443Z,96445.28
2018-03-22T20:45:15.459Z,96446.20
2018-03-22T20:47:41.513Z,96455.70
2018-03-22T20:50:07.559Z,96451.78
2018-03-22T20:52:33.601Z,96455.97
2018-03-22T20:54:59.647Z,96439.28
2018-03-22T20:57:25.685Z,96446.17
2018-03-22T20:59:51.754Z,96443.47
2018-03-22T21:02:17.810Z,96438.91
2018-03-22T21:04:43.778Z,96439.03
2018-03-22T21:07:09.846Z,96437.07
2018-03-22T21:09:35.842Z,96433.31
2018-03-22T21:12:01.895Z,96434.22
2018-03-22T21:14:27.931Z,96424.09
2018-03-22T21:16:54.014Z,96439.96
2018-03-22T21:19:20.127Z,96431.50
2018-03-22T21:21:46.302Z,96436.18
2018-03-22T21:24:12.405Z,96432.02
2018-03-22T21:26:38.477Z,96430.97
2018-03-22T21:29:04.528Z,96424.18
2018-03-22T21:31:30.863Z,96424.97
2018-03-22T21:33:57.117Z,96420.92
2018-03-22T21:36:23.190Z,96422.35
2018-03-22T21:38:49.269Z,96417.92
2018-03-22T21:41:37.523Z,96417.50
2018-03-22T21:44:14.763Z,96410.39
2018-03-22T21:46:40.784Z,96408.02
2018-03-22T21:49:06.879Z,96402.55
2018-03-22T21:51:32.958Z,96404.28
2018-03-22T21:53:59.038Z,96407.80
2018-03-22T21:56:25.094Z,96405.45
2018-03-22T21:58:51.151Z,96398.41
2018-03-22T22:01:17.154Z,96402.57
2018-03-22T22:03:43.195Z,96399.70
2018-03-22T22:06:09.195Z,96398.55
2018-03-22T22:08:35.162Z,96396.72
2018-03-22T22:11:01.162Z,96392.55
2018-03-22T22:13:27.149Z,96388.03
2018-03-22T22:15:53.206Z,96388.03
2018-03-22T22:18:19.222Z,96384.11
2018-03-22T22:20:45.223Z,96378.63
2018-03-22T22:23:11.301Z,96380.35
2018-03-22T22:25:37.339Z,96371.09
2018-03-22T22:28:03.390Z,96370.03
2018-03-22T22:30:29.388Z,96362.73
2018-03-22T22:32:55.488Z,96366.24
2018-03-22T22:35:21.545Z,96359.34
2018-03-22T22:37:47.511Z,96358.45
2018-03-22T22:40:13.572Z,96353.88
2018-03-22T22:42:39.655Z,96348.67
2018-03-22T22:45:05.659Z,96345.55
2018-03-22T22:47:31.634Z,96336.31
2018-03-22T22:49:57.716Z,96338.93
2018-03-22T22:52:23.735Z,96333.23
2018-03-22T22:54:49.761Z,96330.92
2018-03-22T22:57:15.826Z,96335.08
2018-03-22T22:59:41.869Z,96328.91
2018-03-22T23:02:07.906Z,96326.79
2018-03-22T23:04:34.018Z,96324.44
2018-03-22T23:07:00.079Z,96327.56
2018-03-22T23:09:26.080Z,96322.05
2018-03-22T23:11:52.190Z,96321.84
2018-03-22T23:14:18.242Z,96322.13
2018-03-22T23:16:44.317Z,96308.70
2018-03-22T23:19:10.345Z,96301.64
2018-03-22T23:21:36.384Z,96303.47
2018-03-22T23:24:02.390Z,96303.73
2018-03-22T23:26:28.462Z,96303.36
2018-03-22T23:28:54.477Z,96297.09
2018-03-22T23:31:20.521Z,96298.40
2018-03-22T23:33:46.593Z,96308.16
2018-03-22T23:36:12.647Z,96299.04
2018-03-22T23:38:38.657Z,96303.09
2018-03-22T23:41:04.638Z,96298.09
2018-03-22T23:43:30.694Z,96292.67
2018-03-22T23:45:56.699Z,96302.88
2018-03-22T23:48:22.739Z,96303.16
2018-03-22T23:50:48.832Z,96296.67
2018-03-22T23:53:14.862Z,96296.46
2018-03-22T23:55:40.948Z,96290.76
2018-03-22T23:58:07.075Z,96291.13
